createdAt,value
2022-11-24T00:03:40.492Z,9.80
2022-11-24T00:08:45.117Z,7.50
2022-11-24T00:13:47.644Z,11.17
2022-11-24T00:18:51.487Z,9.43
2022-11-24T00:23:54.029Z,8.63
2022-11-24T00:29:00.309Z,10.20
2022-11-24T00:34:04.678Z,8.03
2022-11-24T00:39:10.238Z,8.47
2022-11-24T00:44:12.582Z,8.57
2022-11-24T00:49:14.845Z,11.17
2022-11-24T00:54:17.129Z,8.83
2022-11-24T00:59:19.403Z,9.13
2022-11-24T01:04:21.597Z,8.77
2022-11-24T01:09:23.899Z,9.97
2022-11-24T01:14:26.160Z,6.47
2022-11-24T01:19:28.544Z,10.93
2022-11-24T01:24:30.933Z,12.17
2022-11-24T01:29:33.299Z,12.27
2022-11-24T01:34:35.807Z,9.40
2022-11-24T01:39:38.132Z,7.97
2022-11-24T01:44:41.230Z,9.73
2022-11-24T01:49:55.087Z,10.90
2022-11-24T01:55:00.046Z,11.20
2022-11-24T02:00:08.793Z,9.20
2022-11-24T02:05:34.756Z,9.53
2022-11-24T02:10:37.618Z,8.40
2022-11-24T02:15:40.014Z,9.03
2022-11-24T02:20:42.431Z,12.00
2022-11-24T02:26:30.321Z,9.97
2022-11-24T02:31:32.937Z,11.40
2022-11-24T02:36:35.185Z,9.70
2022-11-24T02:41:38.072Z,11.30
2022-11-24T02:46:40.287Z,10.23
2022-11-24T02:51:42.542Z,8.93
2022-11-24T02:56:44.753Z,10.57
2022-11-24T03:01:47.181Z,11.50
2022-11-24T03:06:49.562Z,11.07
2022-11-24T03:11:51.828Z,9.50
2022-11-24T03:16:54.067Z,16.87
2022-11-24T03:21:56.296Z,12.73
2022-11-24T03:26:58.711Z,10.27
2022-11-24T03:32:01.050Z,11.00
2022-11-24T03:37:03.373Z,10.93
2022-11-24T03:42:05.799Z,8.97
2022-11-24T03:47:08.218Z,12.43
2022-11-24T03:52:10.442Z,10.83
2022-11-24T03:57:12.876Z,7.87
2022-11-24T04:02:15.218Z,10.17
2022-11-24T04:07:18.067Z,11.57
2022-11-24T04:12:38.725Z,9.50
2022-11-24T04:17:41.055Z,15.17
2022-11-24T04:22:43.670Z,12.13
2022-11-24T04:27:46.334Z,13.40
2022-11-24T04:32:56.454Z,12.33
2022-11-24T04:38:02.798Z,13.50
2022-11-24T04:43:05.052Z,11.33
2022-11-24T04:48:07.409Z,11.67
2022-11-24T04:53:10.599Z,11.40
2022-11-24T04:58:13.135Z,12.77
2022-11-24T05:03:15.379Z,12.47
2022-11-24T05:08:17.565Z,11.17
2022-11-24T05:13:19.825Z,10.57
2022-11-24T05:18:22.516Z,11.93
2022-11-24T05:23:24.858Z,11.33
2022-11-24T05:28:27.502Z,11.43
2022-11-24T05:33:30.420Z,11.80
2022-11-24T05:38:33.221Z,9.87
2022-11-24T05:43:35.488Z,12.13
2022-11-24T05:48:37.713Z,14.23
2022-11-24T05:53:39.895Z,13.13
2022-11-24T05:58:43.314Z,12.77
2022-11-24T06:03:45.544Z,13.20
2022-11-24T06:08:47.892Z,15.27
2022-11-24T06:13:50.180Z,14.13
2022-11-24T06:18:52.568Z,12.17
2022-11-24T06:23:54.855Z,12.53
2022-11-24T06:28:57.259Z,17.47
2022-11-24T06:34:00.077Z,14.13
2022-11-24T06:39:02.969Z,11.17
2022-11-24T06:44:05.601Z,11.83
2022-11-24T06:49:08.024Z,14.07
2022-11-24T06:54:14.613Z,13.13
2022-11-24T06:59:20.966Z,11.60
2022-11-24T07:04:23.244Z,12.87
2022-11-24T07:09:25.405Z,11.67
2022-11-24T07:14:27.533Z,11.80
2022-11-24T07:19:29.755Z,13.77
2022-11-24T07:24:32.097Z,15.73
2022-11-24T07:29:37.562Z,16.93
2022-11-24T07:34:39.920Z,13.93
2022-11-24T07:39:42.388Z,20.50
2022-11-24T07:44:44.696Z,16.93
2022-11-24T07:49:46.856Z,13.10
2022-11-24T07:54:49.056Z,11.73
2022-11-24T07:59:51.253Z,15.97
2022-11-24T08:04:53.464Z,16.30
2022-11-24T08:09:55.732Z,15.13
2022-11-24T08:14:58.107Z,17.40
2022-11-24T08:20:00.306Z,19.90
2022-11-24T08:25:02.559Z,21.47
2022-11-24T08:30:05.614Z,18.47
2022-11-24T08:35:13.777Z,13.63
2022-11-24T08:40:17.163Z,17.07
2022-11-24T08:45:21.422Z,16.00
2022-11-24T08:50:25.670Z,16.40
2022-11-24T08:55:27.873Z,15.83
2022-11-24T09:00:33.270Z,17.97
2022-11-24T09:05:52.608Z,20.00
2022-11-24T09:11:00.360Z,17.77
2022-11-24T09:16:04.807Z,15.87
2022-11-24T09:21:19.000Z,18.20
2022-11-24T09:26:23.938Z,21.80
2022-11-24T09:31:29.765Z,18.43
2022-11-24T09:36:32.351Z,15.37
2022-11-24T09:41:50.909Z,16.93
2022-11-24T09:47:29.764Z,16.23
2022-11-24T09:52:42.124Z,19.20
2022-11-24T09:57:44.644Z,16.93
2022-11-24T10:02:49.627Z,21.67
2022-11-24T10:08:22.298Z,15.47
2022-11-24T10:13:41.525Z,16.90
2022-11-24T10:19:02.029Z,20.33
2022-11-24T10:24:16.332Z,16.23
2022-11-24T10:29:41.279Z,15.10
2022-11-24T10:34:50.822Z,16.70
2022-11-24T10:40:40.651Z,14.87
2022-11-24T10:45:40.750Z,13.57
2022-11-24T10:50:43.443Z,21.00
2022-11-24T10:55:55.103Z,17.67
2022-11-24T11:01:03.423Z,14.80
2022-11-24T11:06:14.150Z,19.93
2022-11-24T11:11:22.027Z,16.93
2022-11-24T11:16:27.296Z,17.90
2022-11-24T11:21:34.681Z,17.33
2022-11-24T11:26:38.880Z,22.33
2022-11-24T11:31:41.397Z,19.53
2022-11-24T11:36:48.558Z,25.00
2022-11-24T11:41:56.407Z,18.57
2022-11-24T11:46:59.586Z,20.83
2022-11-24T11:52:17.024Z,23.10
2022-11-24T11:57:31.799Z,28.30
2022-11-24T12:02:39.448Z,25.37
2022-11-24T12:07:58.440Z,21.13
2022-11-24T12:13:14.142Z,25.87
2022-11-24T12:18:59.130Z,20.93
2022-11-24T12:24:13.593Z,16.13
2022-11-24T12:29:31.101Z,18.40
2022-11-24T12:34:52.949Z,20.77
2022-11-24T12:40:13.358Z,23.20
2022-11-24T12:45:17.897Z,25.77
2022-11-24T12:50:22.909Z,24.60
2022-11-24T12:55:28.161Z,27.13
2022-11-24T13:00:53.637Z,19.03
2022-11-24T13:06:11.221Z,21.87
2022-11-24T13:11:22.669Z,27.77
2022-11-24T13:16:36.089Z,21.27
2022-11-24T13:21:43.214Z,26.50
2022-11-24T13:27:13.045Z,18.27
2022-11-24T13:32:15.429Z,19.88
2022-11-24T13:37:33.615Z,17.60
2022-11-24T13:43:01.608Z,20.90
2022-11-24T13:48:24.030Z,18.70
2022-11-24T13:53:56.045Z,15.27
2022-11-24T13:59:15.821Z,15.77
2022-11-24T14:09:36.618Z,20.77
2022-11-24T14:14:39.086Z,20.70
2022-11-24T14:19:42.785Z,11.50
2022-11-24T14:24:47.040Z,16.07
2022-11-24T14:29:58.089Z,16.20
2022-11-24T14:35:00.315Z,12.13
2022-11-24T14:40:02.608Z,10.73
2022-11-24T14:45:05.525Z,10.33
2022-11-24T14:50:19.588Z,12.07
2022-11-24T14:55:30.035Z,10.63
2022-11-24T15:00:33.084Z,13.33
2022-11-24T15:05:56.323Z,12.20
2022-11-24T15:11:02.804Z,11.43
2022-11-24T15:16:19.668Z,10.13
2022-11-24T15:21:35.758Z,12.33
2022-11-24T15:26:41.984Z,14.50
2022-11-24T15:31:49.345Z,13.13
2022-11-24T15:36:54.542Z,14.73
2022-11-24T15:41:56.790Z,14.97
2022-11-24T15:46:59.100Z,13.17
2022-11-24T15:52:01.445Z,11.63
2022-11-24T15:57:03.920Z,11.73
2022-11-24T16:02:06.242Z,11.87
2022-11-24T16:07:15.088Z,12.90
2022-11-24T16:12:17.546Z,15.90
2022-11-24T16:17:20.041Z,11.57
2022-11-24T16:22:22.365Z,15.80
2022-11-24T16:27:24.732Z,19.90
2022-11-24T16:32:27.077Z,14.23
2022-11-24T16:37:29.465Z,15.77
2022-11-24T16:42:32.038Z,14.43
2022-11-24T16:47:39.686Z,14.33
2022-11-24T16:52:41.836Z,15.73
2022-11-24T16:57:44.102Z,18.57
2022-11-24T17:02:52.597Z,14.50
2022-11-24T17:07:55.805Z,15.23
2022-11-24T17:12:58.027Z,8.63
2022-11-24T17:23:22.557Z,12.20
2022-11-24T17:28:24.801Z,10.13
2022-11-24T17:33:28.607Z,9.67
2022-11-24T17:38:31.490Z,11.33
2022-11-24T17:43:33.780Z,12.47
2022-11-24T17:48:36.253Z,12.30
2022-11-24T17:53:39.398Z,15.43
2022-11-24T17:58:43.301Z,16.40
2022-11-24T18:03:48.979Z,14.87
2022-11-24T18:08:57.352Z,8.57
2022-11-24T18:14:02.407Z,10.77
2022-11-24T18:19:10.174Z,11.53
2022-11-24T18:24:14.117Z,6.80
2022-11-24T18:29:16.370Z,10.90
2022-11-24T18:34:19.151Z,10.83
2022-11-24T18:39:22.437Z,6.73
2022-11-24T18:44:24.656Z,10.57
2022-11-24T18:49:26.992Z,8.37
2022-11-24T18:54:29.402Z,5.57
2022-11-24T18:59:31.898Z,9.57
2022-11-24T19:04:34.394Z,9.17
2022-11-24T19:09:37.040Z,8.10
2022-11-24T19:14:39.202Z,5.77
2022-11-24T19:19:41.378Z,9.03
2022-11-24T19:24:45.407Z,9.37
2022-11-24T19:29:48.617Z,8.43
2022-11-24T19:34:50.807Z,11.80
2022-11-24T19:39:53.240Z,16.00
2022-11-24T19:44:56.792Z,17.67
2022-11-24T19:49:59.179Z,15.43
2022-11-24T19:55:02.366Z,12.63
2022-11-24T20:00:07.531Z,7.80
2022-11-24T20:05:09.723Z,7.80
2022-11-24T20:10:11.944Z,6.30
2022-11-24T20:15:15.278Z,10.23
2022-11-24T20:20:17.532Z,8.57
2022-11-24T20:25:20.514Z,5.80
2022-11-24T20:30:22.789Z,8.07
2022-11-24T20:35:24.968Z,9.27
2022-11-24T20:40:27.676Z,5.60
2022-11-24T20:45:30.130Z,6.53
2022-11-24T20:50:32.377Z,10.20
2022-11-24T20:55:34.865Z,6.63
2022-11-24T21:00:37.116Z,7.20
2022-11-24T21:05:39.426Z,9.40
2022-11-24T21:10:41.651Z,6.50
2022-11-24T21:15:44.013Z,6.80
2022-11-24T21:20:46.628Z,6.23
2022-11-24T21:25:48.813Z,5.73
2022-11-24T21:30:50.995Z,5.37
2022-11-24T21:35:53.294Z,11.97
2022-11-24T21:41:00.441Z,8.10
2022-11-24T21:46:04.397Z,10.63
2022-11-24T21:51:11.402Z,5.67
2022-11-24T21:56:16.287Z,10.50
2022-11-24T22:01:20.290Z,6.43
2022-11-24T22:06:23.147Z,7.43
2022-11-24T22:11:26.092Z,9.77
2022-11-24T22:16:28.564Z,9.20
2022-11-24T22:21:31.026Z,7.50
2022-11-24T22:26:33.407Z,8.27
2022-11-24T22:31:35.694Z,5.93
2022-11-24T22:36:38.040Z,6.17
2022-11-24T22:41:40.199Z,4.00
2022-11-24T22:46:42.396Z,7.37
2022-11-24T22:51:44.576Z,5.63
2022-11-24T22:56:46.868Z,6.80
2022-11-24T23:01:49.171Z,8.33
2022-11-24T23:06:51.507Z,5.33
2022-11-24T23:11:53.682Z,7.43
2022-11-24T23:16:56.053Z,4.87
2022-11-24T23:21:58.255Z,7.40
2022-11-24T23:27:00.510Z,8.17
2022-11-24T23:32:02.998Z,6.60
2022-11-24T23:37:05.307Z,5.90
2022-11-24T23:42:07.702Z,4.73
2022-11-24T23:47:09.915Z,5.00
2022-11-24T23:52:12.078Z,6.30
2022-11-24T23:57:14.264Z,5.00
